Latest Weather Observations for Charleville

IDQ60801

Issued at 10:35 pm EST Wednesday 27 August 2014 (issued every 30 minutes, with the page automatically refreshed every 10 minutes)

About weather observations | Map of weather stations | Latest weather observations for QLD | Other Formats
Station Details ID: 044021 Name: CHARLEVILLE AERO Lat: -26.41 Lon: 146.26 Height: 301.6 m
Data from the previous 72 hours. | See also: Recent months at Charleville
Date/Time
EST
Temp
°C
App
Temp
°C
Dew
Point
Rel
Hum
%
Delta-T
°C
Wind Press
QNH
hPa
Press
MSL
hPa
Rain
since 9 am
mm
Dir
 
Spd
km/h
Gust
km/h
Spd
kts
Gust
kts
27/10:30pm 14.3 9.7 6.4 59 3.9 SSE 20 28 11 15 1022.1 - 0.0
27/10:00pm 14.9 9.8 6.0 55 4.3 SSE 22 33 12 18 1022.0 - 0.0
27/09:30pm 14.7 9.9 4.6 50 4.8 SSE 19 26 10 14 1021.7 - 0.0
27/09:00pm 13.6 10.2 3.9 52 4.5 S 11 13 6 7 1021.4 1021.5 0.0
27/08:30pm 13.7 10.3 4.0 52 4.5 S 11 11 6 6 1021.1 - 0.0
27/08:00pm 14.8 11.8 4.3 49 4.9 S 9 11 5 6 1021.0 - 0.0
27/07:30pm 15.8 12.7 3.4 43 5.8 S 9 11 5 6 1020.7 - 0.0
27/07:00pm 16.9 12.8 2.0 36 6.8 S 13 17 7 9 1020.3 - 0.0
27/06:30pm 18.0 13.1 1.9 34 7.4 S 17 26 9 14 1020.0 - 0.0
27/06:00pm 18.5 13.0 0.4 29 8.1 SSE 19 26 10 14 1019.6 1019.6 0.0
27/05:30pm 19.3 14.5 0.1 27 8.6 S 15 19 8 10 1019.3 - 0.0
27/05:00pm 20.2 15.7 0.0 26 9.1 SSW 13 17 7 9 1018.9 - 0.0
27/04:30pm 20.3 15.4 -0.7 24 9.3 S 15 26 8 14 1018.7 - 0.0
27/04:00pm 20.4 14.5 -0.8 24 9.4 S 20 32 11 17 1018.5 - 0.0
27/03:30pm 20.4 15.0 -1.1 23 9.5 S 17 24 9 13 1017.9 - 0.0
27/03:00pm 20.5 14.5 -1.2 23 9.5 S 20 32 11 17 1018.2 1018.2 0.0
27/02:30pm 20.5 13.8 -1.1 23 9.5 S 24 33 13 18 1018.5 - 0.0
27/02:00pm 19.7 13.8 1.4 29 8.4 SSE 22 37 12 20 1018.7 - 0.0
27/01:30pm 19.4 13.3 0.6 28 8.5 S 22 32 12 17 1018.9 - 0.0
27/01:00pm 19.5 14.6 1.9 31 8.2 SSW 17 32 9 17 1019.0 - 0.0
27/12:30pm 18.6 13.4 2.6 34 7.5 S 19 24 10 13 1019.5 - 0.0
27/11:30am 17.0 13.9 3.8 41 6.2 SSW 9 11 5 6 1020.3 - 0.0
27/11:00am 16.7 11.5 3.6 41 6.2 SSW 20 30 11 16 1020.6 - 0.0
27/10:30am 15.9 10.9 3.8 44 5.7 S 19 32 10 17 1020.9 - 0.0
27/10:00am 15.5 10.7 4.8 49 5.1 S 19 26 10 14 1020.9 - 0.0
27/09:30am 14.3 8.9 4.4 51 4.6 S 22 32 12 17 1020.9 - 0.0
27/09:00am 13.5 8.4 4.3 53 4.3 SSE 20 26 11 14 1020.9 1021.0 0.0
27/08:30am 11.9 8.1 3.8 57 3.7 S 13 19 7 10 1020.6 - 0.0
27/08:00am 10.0 6.9 3.7 65 2.8 SSW 9 11 5 6 1020.5 - 0.0
27/07:30am 8.1 6.8 4.1 76 1.8 CALM 0 0 0 0 1020.2 - 0.0
27/07:00am 4.2 2.7 2.9 91 0.5 CALM 0 0 0 0 1019.8 - 0.0
27/06:30am 3.6 1.6 2.4 92 0.5 NNE 2 7 1 4 1019.3 - 0.0
27/06:00am 3.9 2.3 2.7 92 0.5 NW 0 0 0 0 1019.1 1019.1 0.0
27/05:30am 4.3 2.8 2.8 90 0.6 CALM 0 0 0 0 1018.8 - 0.0
27/05:00am 4.8 2.9 2.9 87 0.8 ENE 2 6 1 3 1018.8 - 0.0
27/04:30am 4.6 3.1 3.2 91 0.6 CALM 0 0 0 0 1018.6 - 0.0
27/04:00am 5.0 3.5 3.2 88 0.8 CALM 0 0 0 0 1018.6 - 0.0
27/03:30am 4.9 3.4 3.1 88 0.8 CALM 0 0 0 0 1018.6 - 0.0
27/03:00am 5.2 3.7 3.2 87 0.8 ESE 0 0 0 0 1018.9 1018.9 0.0
27/02:30am 5.5 4.1 3.3 86 0.9 CALM 0 0 0 0 1019.1 - 0.0
27/02:00am 6.1 4.7 3.3 82 1.2 CALM 0 0 0 0 1019.4 - 0.0
27/01:30am 6.4 5.0 3.3 80 1.3 CALM 0 0 0 0 1019.8 - 0.0
27/01:00am 7.0 5.6 3.3 77 1.6 CALM 0 0 0 0 1020.1 - 0.0
27/12:30am 7.4 5.9 2.9 73 1.9 CALM 0 0 0 0 1020.3 - 0.0
27/12:00am 8.2 6.7 3.1 70 2.2 SW 0 0 0 0 1020.4 1020.4 0.0
 
Date/Time
EST
Temp
°C
App
Temp
°C
Dew
Point
Rel
Hum
%
Delta-T
°C
Wind Press
QNH
hPa
Press
MSL
hPa
Rain
since 9 am
mm
Dir
 
Spd
km/h
Gust
km/h
Spd
kts
Gust
kts
26/11:30pm 8.8 6.9 3.1 67 2.5 SW 2 6 1 3 1020.5 - 0.0
26/11:00pm 10.2 6.9 2.4 58 3.4 S 9 11 5 6 1020.5 - 0.0
26/10:30pm 9.3 5.2 2.4 62 3.0 S 13 15 7 8 1020.6 - 0.0
26/10:00pm 8.8 7.2 2.6 65 2.7 CALM 0 0 0 0 1020.4 - 0.0
26/09:30pm 9.3 7.7 2.4 62 3.0 CALM 0 0 0 0 1020.3 - 0.0
26/09:00pm 9.6 8.0 2.6 61 3.0 CALM 0 0 0 0 1020.1 1020.1 0.0
26/08:30pm 10.4 8.8 2.4 57 3.5 CALM 0 0 0 0 1020.0 - 0.0
26/08:00pm 11.1 9.5 2.3 54 3.8 CALM 0 0 0 0 1019.8 - 0.0
26/07:30pm 12.1 10.4 2.0 50 4.4 CALM 0 0 0 0 1019.6 - 0.0
26/07:00pm 13.7 10.7 1.9 44 5.2 SSW 7 7 4 4 1019.3 - 0.0
26/06:30pm 15.4 11.4 0.6 36 6.5 SSW 11 13 6 7 1019.3 - 0.0
26/06:00pm 16.5 12.3 -0.7 31 7.4 SSW 11 15 6 8 1019.0 1019.0 0.0
26/05:30pm 17.3 12.2 -1.9 27 8.1 SSW 15 24 8 13 1018.8 - 0.0
26/05:00pm 18.0 12.9 -2.0 25 8.5 SSW 15 26 8 14 1018.5 - 0.0
26/04:30pm 18.6 13.1 -2.4 24 8.9 SSW 17 32 9 17 1018.4 - 0.0
26/04:00pm 19.0 13.9 -2.0 24 9.0 S 15 19 8 10 1018.4 - 0.0
26/03:30pm 18.8 14.1 -2.1 24 8.9 S 13 15 7 8 1018.3 - 0.0
26/03:00pm 19.1 11.0 -3.2 22 9.3 SW 30 37 16 20 1018.2 1018.2 0.0
26/02:30pm 19.0 13.1 -2.3 23 9.0 SW 19 30 10 16 1018.3 - 0.0
26/02:00pm 18.7 13.2 -1.9 24 8.8 SSW 17 22 9 12 1018.6 - 0.0
26/01:30pm 18.4 12.9 -2.4 24 8.8 WSW 17 30 9 16 1018.9 - 0.0
26/01:00pm 18.2 12.0 -5.1 20 9.3 SSW 19 30 10 16 1019.3 - 0.0
26/12:30pm 18.1 11.8 -5.7 19 9.3 WSW 19 30 10 16 1019.8 - 0.0
26/12:00pm 17.2 10.9 -5.4 21 8.8 WSW 19 26 10 14 1020.3 1020.3 0.0
26/11:30am 17.4 11.4 -2.8 25 8.4 S 19 28 10 15 1020.8 - 0.0
26/11:00am 16.5 10.2 -5.5 21 8.5 SW 19 28 10 15 1021.4 - 0.0
26/10:30am 16.1 10.3 -4.7 23 8.2 SW 17 24 9 13 1021.7 - 0.0
26/10:00am 15.8 11.3 -3.3 26 7.7 SSW 11 17 6 9 1021.7 - 0.0
26/09:30am 14.3 10.4 -1.8 33 6.6 SSW 9 13 5 7 1022.0 - 0.0
26/09:00am 13.2 9.4 -1.0 37 5.8 S 9 15 5 8 1022.1 1022.1 0.0
26/08:30am 11.8 7.6 -0.9 41 5.2 S 11 17 6 9 1022.0 - 0.0
26/08:00am 9.9 6.5 -0.7 47 4.3 SSW 7 9 4 5 1022.0 - 0.0
26/07:30am 7.1 5.6 2.8 74 1.8 CALM 0 0 0 0 1021.9 - 0.0
26/07:00am 3.9 2.2 1.7 85 0.9 CALM 0 0 0 0 1021.7 - 0.0
26/06:30am 3.7 1.9 1.5 85 0.9 CALM 0 2 0 1 1021.5 - 0.0
26/06:00am 4.1 2.4 2.0 86 0.8 CALM 0 0 0 0 1021.2 1021.3 0.0
26/05:30am 4.6 2.9 1.9 83 1.1 CALM 0 0 0 0 1020.9 - 0.0
26/05:00am 5.0 3.4 2.2 82 1.1 CALM 0 0 0 0 1020.8 - 0.0
26/04:30am 5.4 3.8 2.3 80 1.3 CALM 0 0 0 0 1020.7 - 0.0
26/04:00am 5.8 4.2 2.4 79 1.4 CALM 0 0 0 0 1020.7 - 0.0
26/03:30am 6.4 4.8 2.7 77 1.6 CALM 0 0 0 0 1020.7 - 0.0
26/03:00am 7.1 4.3 3.0 75 1.7 SSW 7 7 4 4 1021.0 1021.1 0.0
26/02:30am 7.3 4.5 3.2 75 1.8 SSW 7 7 4 4 1021.3 - 0.0
26/02:00am 7.8 5.0 3.0 71 2.1 SSW 7 7 4 4 1021.4 - 0.0
26/01:30am 8.7 6.0 3.5 70 2.3 SSW 7 7 4 4 1021.7 - 0.0
26/01:00am 9.7 7.1 4.0 67 2.6 S 7 7 4 4 1021.8 - 0.0
26/12:30am 11.3 7.7 2.8 56 3.8 S 11 13 6 7 1021.9 - 0.0
26/12:00am 11.8 8.2 2.9 54 3.9 S 11 17 6 9 1022.0 1022.0 0.0
 
Date/Time
EST
Temp
°C
App
Temp
°C
Dew
Point
Rel
Hum
%
Delta-T
°C
Wind Press
QNH
hPa
Press
MSL
hPa
Rain
since 9 am
mm
Dir
 
Spd
km/h
Gust
km/h
Spd
kts
Gust
kts
25/11:30pm 12.5 9.0 3.6 54 4.0 S 11 11 6 6 1022.1 - 0.0
25/11:00pm 11.9 8.5 3.8 57 3.7 S 11 13 6 7 1022.1 - 0.0
25/10:30pm 11.4 8.5 4.8 64 3.1 S 9 9 5 5 1022.2 - 0.0
25/10:00pm 11.9 9.4 4.7 61 3.3 SSE 7 9 4 5 1022.3 - 0.0
25/09:30pm 12.2 9.4 5.1 62 3.3 S 9 9 5 5 1022.3 - 0.0
25/09:00pm 12.7 10.2 4.7 58 3.7 S 7 7 4 4 1022.3 1022.3 0.0
25/08:30pm 13.7 11.2 4.6 54 4.3 S 7 9 4 5 1022.3 - 0.0
25/08:00pm 14.8 12.3 4.7 51 4.8 S 7 9 4 5 1022.3 - 0.0
25/07:30pm 16.0 13.1 4.4 46 5.5 S 9 11 5 6 1022.1 - 0.0
25/07:00pm 17.5 14.3 3.3 38 6.7 S 9 11 5 6 1021.9 - 0.0
25/06:30pm 18.9 15.2 2.2 33 7.8 S 11 13 6 7 1021.4 - 0.0
25/06:00pm 20.3 15.6 0.9 27 8.9 S 15 20 8 11 1021.3 1021.4 0.0
25/05:30pm 21.4 15.9 0.9 25 9.5 S 19 28 10 15 1020.9 - 0.0
25/05:00pm 22.0 15.8 -0.2 23 10.1 SSE 22 32 12 17 1020.8 - 0.0
25/04:30pm 22.4 15.9 0.2 23 10.2 S 24 33 13 18 1020.8 - 0.0
25/04:00pm 22.5 16.0 0.3 23 10.2 S 24 35 13 19 1020.9 - 0.0
25/03:30pm 22.4 16.7 0.7 23 10.1 S 20 32 11 17 1021.1 - 0.0
25/03:00pm 22.7 16.4 1.6 25 9.9 SSE 24 35 13 19 1021.2 1021.3 0.0
25/02:30pm 22.4 16.0 1.0 24 10.0 SSE 24 32 13 17 1021.4 - 0.0
25/02:00pm 22.3 16.2 0.5 23 10.1 S 22 32 12 17 1022.0 - 0.0
25/01:30pm 22.4 15.2 0.6 23 10.1 SSE 28 33 15 18 1022.3 - 0.0
25/01:00pm 22.1 15.8 1.7 26 9.6 S 24 32 13 17 1022.8 - 0.0
25/12:30pm 21.3 14.9 1.0 26 9.4 S 24 37 13 20 1023.4 - 0.0
25/12:00pm 21.5 14.8 1.6 26 9.3 SSE 26 35 14 19 1023.8 1023.9 0.0
25/11:30am 21.0 13.2 1.9 28 9.0 SSE 32 41 17 22 1024.3 - 0.0
25/11:00am 20.8 15.0 2.5 29 8.7 SSE 22 33 12 18 1024.7 - 0.0
25/10:30am 20.2 14.8 2.3 30 8.4 SE 20 32 11 17 1025.0 - 0.0
25/10:00am 19.7 15.1 3.5 34 7.8 SSE 17 26 9 14 1025.4 - 0.0
25/09:30am 18.7 14.2 4.2 38 7.0 SSE 17 20 9 11 1025.6 - 0.0
25/09:00am 17.8 14.9 6.4 47 5.7 SE 11 17 6 9 1025.6 1025.6 0.0
25/08:30am 15.6 13.7 6.5 54 4.5 SSE 6 9 3 5 1025.5 - 0.0
25/08:00am 13.6 12.7 6.2 61 3.6 CALM 0 0 0 0 1025.3 - 0.0
25/07:30am 9.6 8.8 6.7 82 1.4 CALM 0 0 0 0 1024.8 - 0.0
25/07:00am 7.5 6.5 5.8 89 0.8 CALM 0 2 0 1 1024.5 - 0.0
25/06:30am 7.5 6.5 5.7 88 0.8 CALM 0 0 0 0 1024.3 - 0.0
25/06:00am 8.1 6.7 5.7 85 1.1 SSE 2 6 1 3 1024.3 1024.4 0.0
25/05:30am 8.6 5.9 5.7 82 1.3 SE 9 9 5 5 1023.9 - 0.0
25/05:00am 9.2 6.9 5.7 79 1.6 SE 7 11 4 6 1023.7 - 0.0
25/04:30am 9.6 6.9 5.8 77 1.8 SSE 9 9 5 5 1023.7 - 0.0
25/04:00am 9.5 7.3 6.0 79 1.6 S 7 9 4 5 1023.7 - 0.0
25/03:30am 10.2 7.9 5.9 74 2.0 SSE 7 7 4 4 1023.7 - 0.0
25/03:00am 11.1 8.4 5.7 69 2.5 S 9 11 5 6 1023.7 1023.8 0.0
25/02:30am 11.8 8.3 5.4 65 3.0 S 13 15 7 8 1023.9 - 0.0
25/02:00am 11.8 9.5 5.9 67 2.8 SSE 7 9 4 5 1024.1 - 0.0
25/01:30am 12.5 10.3 6.1 65 3.1 S 7 9 4 5 1024.2 - 0.0
25/01:00am 13.4 11.3 5.7 59 3.7 SSE 6 7 3 4 1024.5 - 0.0
25/12:30am 13.3 11.2 5.9 61 3.6 SSE 6 9 3 5 1024.7 - 0.0
25/12:00am 13.7 11.4 5.7 58 3.8 SSE 7 9 4 5 1024.6 1024.7 0.0
 
Date/Time
EST
Temp
°C
App
Temp
°C
Dew
Point
Rel
Hum
%
Delta-T
°C
Wind Press
QNH
hPa
Press
MSL
hPa
Rain
since 9 am
mm
Dir
 
Spd
km/h
Gust
km/h
Spd
kts
Gust
kts
24/11:30pm 13.7 11.0 5.4 57 4.0 SSE 9 11 5 6 1024.6 - 0.0
24/11:00pm 13.4 10.6 5.3 58 3.8 S 9 11 5 6 1024.8 - 0.0

Other Formats:

Comma delimited format used in spreadsheet applications
http://www.bom.gov.au/fwo/IDQ60801/IDQ60801.94510.axf

JavaScript Object Notation format (JSON) in row-major order
http://www.bom.gov.au/fwo/IDQ60801/IDQ60801.94510.json